createdAt,value
2023-01-08T00:01:13.775Z,99857.19
2023-01-08T00:03:41.046Z,99845.06
2023-01-08T00:06:11.582Z,99840.75
2023-01-08T00:08:38.465Z,99849.41
2023-01-08T00:11:05.235Z,99847.66
2023-01-08T00:13:31.837Z,99844.16
2023-01-08T00:16:06.559Z,99844.19
2023-01-08T00:18:33.856Z,99846.81
2023-01-08T00:21:01.019Z,99839.00
2023-01-08T00:23:27.749Z,99844.22
2023-01-08T00:25:54.382Z,99841.63
2023-01-08T00:28:21.283Z,99834.66
2023-01-08T00:30:48.838Z,99822.53
2023-01-08T00:33:15.905Z,99825.13
2023-01-08T00:35:42.607Z,99828.59
2023-01-08T00:38:09.199Z,99824.25
2023-01-08T00:40:36.726Z,99824.25
2023-01-08T00:43:03.811Z,99828.59
2023-01-08T00:45:30.710Z,99825.13
2023-01-08T00:47:58.323Z,99820.78
2023-01-08T00:50:25.886Z,99820.78
2023-01-08T00:52:52.616Z,99819.94
2023-01-08T00:55:19.527Z,99811.25
2023-01-08T00:57:46.256Z,99805.16
2023-01-08T01:00:15.543Z,99809.50
2023-01-08T01:02:42.914Z,99802.56
2023-01-08T01:05:12.278Z,99802.56
2023-01-08T01:07:39.230Z,99801.72
2023-01-08T01:10:06.502Z,99794.78
2023-01-08T01:12:33.195Z,99802.56
2023-01-08T01:14:59.914Z,99806.06
2023-01-08T01:17:26.575Z,99797.41
2023-01-08T01:19:53.216Z,99801.72
2023-01-08T01:22:19.763Z,99810.38
2023-01-08T01:24:46.308Z,99817.31
2023-01-08T01:27:12.936Z,99807.81
2023-01-08T01:29:39.556Z,99801.72
2023-01-08T01:32:06.649Z,99791.31
2023-01-08T01:34:33.273Z,99789.56
2023-01-08T01:36:59.928Z,99794.78
2023-01-08T01:39:26.596Z,99799.09
2023-01-08T01:41:53.537Z,99798.28
2023-01-08T01:44:38.252Z,99787.84
2023-01-08T01:47:19.888Z,99793.03
2023-01-08T01:49:56.939Z,99790.41
2023-01-08T01:52:25.491Z,99786.09
2023-01-08T01:54:53.047Z,99791.31
2023-01-08T01:57:19.894Z,99793.91
2023-01-08T01:59:48.297Z,99795.66
2023-01-08T02:02:14.972Z,99792.22
2023-01-08T02:04:41.821Z,99797.38
2023-01-08T02:07:15.760Z,99796.53
2023-01-08T02:09:51.935Z,99793.03
2023-01-08T02:12:26.680Z,99790.44
2023-01-08T02:15:02.650Z,99794.78
2023-01-08T02:17:51.100Z,99784.38
2023-01-08T02:20:20.402Z,99782.63
2023-01-08T02:22:53.961Z,99786.09
2023-01-08T02:25:36.936Z,99787.84
2023-01-08T02:28:09.025Z,99796.50
2023-01-08T02:30:35.987Z,99785.19
2023-01-08T02:33:03.219Z,99783.50
2023-01-08T02:35:46.858Z,99772.28
2023-01-08T02:38:20.124Z,99775.69
2023-01-08T02:41:10.423Z,99778.28
2023-01-08T02:43:50.036Z,99768.75
2023-01-08T02:46:22.422Z,99767.88
2023-01-08T02:48:54.587Z,99765.25
2023-01-08T02:51:35.559Z,99771.34
2023-01-08T02:54:11.657Z,99762.66
2023-01-08T02:56:44.534Z,99755.75
2023-01-08T02:59:23.703Z,99752.28
2023-01-08T03:01:50.822Z,99741.00
2023-01-08T03:04:22.181Z,99734.09
2023-01-08T03:06:49.873Z,99737.50
2023-01-08T03:09:17.723Z,99735.81
2023-01-08T03:11:52.194Z,99733.22
2023-01-08T03:14:21.642Z,99729.72
2023-01-08T03:16:52.563Z,99732.38
2023-01-08T03:19:23.700Z,99725.38
2023-01-08T03:21:52.247Z,99716.69
2023-01-08T03:24:26.735Z,99721.94
2023-01-08T03:26:58.331Z,99720.16
2023-01-08T03:29:27.215Z,99719.25
2023-01-08T03:31:58.407Z,99723.63
2023-01-08T03:34:26.864Z,99720.16
2023-01-08T03:36:58.687Z,99719.34
2023-01-08T03:39:41.972Z,99710.69
2023-01-08T03:42:12.209Z,99708.06
2023-01-08T03:44:39.174Z,99696.75
2023-01-08T03:47:09.659Z,99692.41
2023-01-08T03:49:38.205Z,99694.19
2023-01-08T03:52:04.856Z,99691.59
2023-01-08T03:54:34.261Z,99690.72
2023-01-08T03:57:01.009Z,99686.41
2023-01-08T03:59:27.632Z,99691.63
2023-01-08T04:01:54.729Z,99693.38
2023-01-08T04:04:21.397Z,99688.97
2023-01-08T04:06:48.034Z,99675.97
2023-01-08T04:09:14.660Z,99671.66
2023-01-08T04:11:41.200Z,99673.41
2023-01-08T04:14:08.140Z,99661.28
2023-01-08T04:16:34.730Z,99675.16
2023-01-08T04:19:01.412Z,99663.00
2023-01-08T04:21:27.971Z,99665.63
2023-01-08T04:23:55.185Z,99656.13
2023-01-08T04:26:21.749Z,99662.16
2023-01-08T04:28:48.391Z,99663.06
2023-01-08T04:31:15.017Z,99661.31
2023-01-08T04:33:41.536Z,99657.84
2023-01-08T04:36:08.318Z,99654.38
2023-01-08T04:38:34.873Z,99653.53
2023-01-08T04:41:02.621Z,99656.13
2023-01-08T04:43:30.763Z,99650.91
2023-01-08T04:46:02.018Z,99649.22
2023-01-08T04:48:29.716Z,99652.66
2023-01-08T04:50:59.093Z,99644.81
2023-01-08T04:53:26.126Z,99649.16
2023-01-08T04:55:52.791Z,99648.31
2023-01-08T04:58:19.440Z,99643.94
2023-01-08T05:00:46.104Z,99640.50
2023-01-08T05:03:12.984Z,99631.84
2023-01-08T05:05:39.512Z,99635.28
2023-01-08T05:08:06.191Z,99632.63
2023-01-08T05:10:32.739Z,99630.13
2023-01-08T05:13:00.210Z,99637.91
2023-01-08T05:15:27.322Z,99637.06
2023-01-08T05:18:01.764Z,99631.03
2023-01-08T05:20:29.290Z,99627.53
2023-01-08T05:22:56.366Z,99619.72
2023-01-08T05:25:22.934Z,99626.59
2023-01-08T05:27:49.557Z,99630.06
2023-01-08T05:30:16.985Z,99632.72
2023-01-08T05:32:43.681Z,99630.06
2023-01-08T05:35:10.692Z,99622.28
2023-01-08T05:37:37.916Z,99621.44
2023-01-08T05:40:05.433Z,99630.06
2023-01-08T05:42:34.876Z,99624.06
2023-01-08T05:45:05.483Z,99624.00
2023-01-08T05:47:33.009Z,99619.69
2023-01-08T05:49:59.773Z,99612.88
2023-01-08T05:52:26.861Z,99621.44
2023-01-08T05:54:53.421Z,99620.53
2023-01-08T05:57:19.974Z,99617.94
2023-01-08T05:59:46.578Z,99614.41
2023-01-08T06:02:13.135Z,99626.59
2023-01-08T06:04:39.811Z,99624.00
2023-01-08T06:07:06.429Z,99619.69
2023-01-08T06:09:32.939Z,99624.00
2023-01-08T06:11:59.463Z,99627.47
2023-01-08T06:14:26.044Z,99614.41
2023-01-08T06:16:52.609Z,99611.88
2023-01-08T06:19:19.276Z,99612.72
2023-01-08T06:21:45.932Z,99616.19
2023-01-08T06:24:12.580Z,99611.00
2023-01-08T06:26:39.136Z,99619.69
2023-01-08T06:29:05.914Z,99613.59
2023-01-08T06:31:32.546Z,99617.94
2023-01-08T06:33:59.164Z,99602.38
2023-01-08T06:36:25.909Z,99610.22
2023-01-08T06:38:52.456Z,99612.75
2023-01-08T06:41:19.141Z,99603.25
2023-01-08T06:43:45.688Z,99609.31
2023-01-08T06:46:12.393Z,99606.66
2023-01-08T06:48:39.000Z,99608.34
2023-01-08T06:51:06.034Z,99609.28
2023-01-08T06:53:32.605Z,99611.88
2023-01-08T06:55:59.320Z,99606.66
2023-01-08T06:58:27.658Z,99605.75
2023-01-08T07:00:54.284Z,99605.84
2023-01-08T07:03:20.954Z,99609.28
2023-01-08T07:05:47.622Z,99617.97
2023-01-08T07:08:15.440Z,99612.78
2023-01-08T07:10:44.305Z,99612.75
2023-01-08T07:13:12.678Z,99618.94
2023-01-08T07:15:41.248Z,99621.44
2023-01-08T07:18:09.826Z,99619.66
2023-01-08T07:20:37.229Z,99617.94
2023-01-08T07:23:09.338Z,99623.19
2023-01-08T07:25:35.982Z,99618.84
2023-01-08T07:28:02.594Z,99622.41
2023-01-08T07:30:30.771Z,99626.69
2023-01-08T07:33:00.082Z,99620.63
2023-01-08T07:35:27.167Z,99627.56
2023-01-08T07:37:53.804Z,99624.09
2023-01-08T07:40:20.369Z,99620.66
2023-01-08T07:42:46.961Z,99619.75
2023-01-08T07:45:13.870Z,99617.19
2023-01-08T07:47:42.605Z,99610.22
2023-01-08T07:50:09.795Z,99611.13
2023-01-08T07:52:37.865Z,99616.28
2023-01-08T07:55:04.904Z,99603.38
2023-01-08T07:57:34.538Z,99605.91
2023-01-08T08:00:01.082Z,99617.16
2023-01-08T08:02:27.877Z,99611.13
2023-01-08T08:04:54.587Z,99611.97
2023-01-08T08:07:21.246Z,99611.13
2023-01-08T08:09:47.762Z,99609.38
2023-01-08T08:12:15.229Z,99600.69
2023-01-08T08:14:41.820Z,99614.53
2023-01-08T08:17:08.374Z,99615.47
2023-01-08T08:19:34.935Z,99611.09
2023-01-08T08:22:01.751Z,99616.25
2023-01-08T08:24:28.350Z,99615.44
2023-01-08T08:26:54.870Z,99614.56
2023-01-08T08:29:21.433Z,99611.09
2023-01-08T08:31:48.092Z,99620.66
2023-01-08T08:34:14.660Z,99618.03
2023-01-08T08:36:41.240Z,99621.50
2023-01-08T08:39:07.948Z,99623.25
2023-01-08T08:41:34.529Z,99637.97
2023-01-08T08:44:01.211Z,99676.09
2023-01-08T08:46:29.658Z,99670.00
2023-01-08T08:48:56.212Z,99676.03
2023-01-08T08:51:22.958Z,99657.84
2023-01-08T08:53:49.593Z,99633.66
2023-01-08T08:56:16.245Z,99635.41
2023-01-08T08:58:42.890Z,99649.25
2023-01-08T09:01:09.583Z,99642.34
2023-01-08T09:03:36.569Z,99631.94
2023-01-08T09:06:03.506Z,99636.34
2023-01-08T09:08:30.029Z,99638.91
2023-01-08T09:10:56.642Z,99632.00
2023-01-08T09:13:23.212Z,99616.41
2023-01-08T09:15:49.836Z,99610.31
2023-01-08T09:18:16.385Z,99597.34
2023-01-08T09:20:42.940Z,99593.84
2023-01-08T09:23:09.773Z,99607.72
2023-01-08T09:25:36.457Z,99600.81
2023-01-08T09:28:06.218Z,99607.72
2023-01-08T09:30:33.512Z,99614.66
2023-01-08T09:33:02.921Z,99619.00
2023-01-08T09:35:29.978Z,99627.59
2023-01-08T09:37:57.895Z,99625.91
2023-01-08T09:40:30.905Z,99620.72
2023-01-08T09:43:00.587Z,99620.72
2023-01-08T09:45:31.127Z,99626.78
2023-01-08T09:48:06.224Z,99632.81
2023-01-08T09:50:34.204Z,99633.72
2023-01-08T09:53:01.075Z,99635.44
2023-01-08T09:55:31.365Z,99630.25
2023-01-08T09:58:01.684Z,99629.38
2023-01-08T10:00:31.718Z,99619.88
2023-01-08T10:02:58.507Z,99614.69
2023-01-08T10:05:29.828Z,99620.72
2023-01-08T10:07:56.491Z,99618.97
2023-01-08T10:10:29.360Z,99618.94
2023-01-08T10:12:56.448Z,99607.75
2023-01-08T10:15:23.687Z,99612.03
2023-01-08T10:17:58.593Z,99608.56
2023-01-08T10:20:25.904Z,99613.81
2023-01-08T10:22:54.350Z,99605.13
2023-01-08T10:25:24.817Z,99607.75
2023-01-08T10:27:52.978Z,99611.19
2023-01-08T10:30:28.620Z,99612.06
2023-01-08T10:32:57.658Z,99614.66
2023-01-08T10:35:33.484Z,99605.13
2023-01-08T10:38:00.366Z,99597.31
2023-01-08T10:40:44.234Z,99595.56
2023-01-08T10:43:25.600Z,99592.97
2023-01-08T10:46:29.101Z,99577.38
2023-01-08T10:48:58.733Z,99571.34
2023-01-08T10:51:26.689Z,99571.28
2023-01-08T10:53:56.222Z,99569.59
2023-01-08T10:56:32.186Z,99568.63
2023-01-08T10:58:58.903Z,99571.19
2023-01-08T11:02:11.388Z,99552.16
2023-01-08T11:11:43.141Z,99535.66
2023-01-08T11:15:00.148Z,99556.41
2023-01-08T11:20:41.871Z,99527.78
2023-01-08T11:24:07.439Z,99514.78
2023-01-08T11:27:13.337Z,99526.75
2023-01-08T11:30:23.991Z,99546.63
2023-01-08T11:33:41.182Z,99537.84
2023-01-08T11:36:55.020Z,99533.44
2023-01-08T11:43:16.684Z,99504.13
2023-01-08T11:50:20.585Z,99496.66
2023-01-08T11:53:37.435Z,99494.16
2023-01-08T11:56:59.495Z,99488.97
2023-01-08T11:59:28.876Z,99488.84
2023-01-08T12:02:08.225Z,99485.28
2023-01-08T12:05:17.689Z,99475.19
2023-01-08T12:08:07.873Z,99467.75
2023-01-08T12:10:53.377Z,99466.53
2023-01-08T12:13:53.560Z,99459.47
2023-01-08T12:16:49.331Z,99445.75
2023-01-08T12:19:22.822Z,99444.78
2023-01-08T12:25:55.489Z,99412.19
2023-01-08T12:29:19.455Z,99412.00
2023-01-08T12:32:24.537Z,99432.81
2023-01-08T12:35:02.506Z,99428.38
2023-01-08T12:38:15.768Z,99423.88
2023-01-08T12:40:54.513Z,99429.56
2023-01-08T12:43:55.189Z,99417.00
2023-01-08T12:46:36.424Z,99417.72
2023-01-08T12:49:10.770Z,99409.56
2023-01-08T12:52:13.060Z,99408.22
2023-01-08T12:55:36.379Z,99386.47
2023-01-08T13:04:27.963Z,99375.69
2023-01-08T13:07:38.151Z,99354.47
2023-01-08T13:11:10.911Z,99339.53
2023-01-08T13:14:19.295Z,99350.66
2023-01-08T13:17:17.054Z,99320.53
2023-01-08T13:20:08.938Z,99338.19
2023-01-08T13:26:19.812Z,99335.06
2023-01-08T13:29:50.695Z,99330.78
2023-01-08T13:33:21.172Z,99312.47
2023-01-08T13:36:36.250Z,99333.84
2023-01-08T13:39:22.754Z,99334.88
2023-01-08T13:42:31.959Z,99292.97
2023-01-08T13:45:21.433Z,99319.66
2023-01-08T13:47:58.591Z,99290.56
2023-01-08T13:51:49.672Z,99273.84
2023-01-08T13:54:57.344Z,99312.75
2023-01-08T13:57:24.437Z,99298.88
2023-01-08T13:59:57.841Z,99303.19
2023-01-08T14:02:45.017Z,99299.56
2023-01-08T14:08:58.757Z,99284.84
2023-01-08T14:11:31.788Z,99281.41
2023-01-08T14:13:59.066Z,99281.47
2023-01-08T14:16:25.964Z,99287.53
2023-01-08T14:19:00.024Z,99301.72
2023-01-08T14:21:27.115Z,99349.72
2023-01-08T14:23:54.160Z,99349.66
2023-01-08T14:26:36.000Z,99348.22
2023-01-08T14:29:12.179Z,99331.78
2023-01-08T14:31:49.057Z,99332.69
2023-01-08T14:34:16.833Z,99323.19
2023-01-08T14:36:44.211Z,99335.28
2023-01-08T14:39:32.219Z,99323.19
2023-01-08T14:42:26.645Z,99328.41
2023-01-08T14:45:05.384Z,99324.94
2023-01-08T14:47:39.991Z,99328.34
2023-01-08T14:50:07.635Z,99328.31
2023-01-08T14:52:39.278Z,99320.53
2023-01-08T14:55:06.383Z,99327.41
2023-01-08T14:57:33.091Z,99330.88
2023-01-08T15:00:01.672Z,99323.13
2023-01-08T15:02:38.059Z,99326.59
2023-01-08T15:05:16.664Z,99318.75
2023-01-08T15:07:54.982Z,99323.94
2023-01-08T15:10:42.816Z,99315.28
2023-01-08T15:13:38.006Z,99315.28
2023-01-08T15:16:16.786Z,99309.28
2023-01-08T15:18:48.960Z,99311.84
2023-01-08T15:21:21.173Z,99305.72
2023-01-08T15:23:55.195Z,99300.53
2023-01-08T15:26:23.078Z,99297.91
2023-01-08T15:28:52.188Z,99301.41
2023-01-08T15:31:41.044Z,99291.84
2023-01-08T15:34:08.539Z,99296.19
2023-01-08T15:36:35.077Z,99290.22
2023-01-08T15:39:01.751Z,99287.75
2023-01-08T15:41:57.587Z,99294.59
2023-01-08T15:44:25.333Z,99294.53
2023-01-08T15:46:52.543Z,99294.59
2023-01-08T15:49:19.385Z,99290.31
2023-01-08T15:51:51.859Z,99299.81
2023-01-08T15:54:20.588Z,99296.34
2023-01-08T15:56:47.240Z,99294.63
2023-01-08T15:59:13.840Z,99285.13
2023-01-08T16:01:40.532Z,99285.19
2023-01-08T16:04:07.512Z,99289.50
2023-01-08T16:06:36.093Z,99282.59
2023-01-08T16:09:02.712Z,99288.63
2023-01-08T16:11:29.626Z,99281.72
2023-01-08T16:13:56.197Z,99299.03
2023-01-08T16:16:22.759Z,99292.97
2023-01-08T16:18:49.497Z,99291.28
2023-01-08T16:21:16.120Z,99292.97
2023-01-08T16:23:42.705Z,99288.69
2023-01-08T16:26:11.768Z,99293.00
2023-01-08T16:28:39.220Z,99292.16
2023-01-08T16:31:06.190Z,99292.16
2023-01-08T16:33:32.972Z,99293.84
2023-01-08T16:36:07.526Z,99289.56
2023-01-08T16:38:35.524Z,99295.63
2023-01-08T16:41:02.580Z,99291.28
2023-01-08T16:43:30.659Z,99285.22
2023-01-08T16:46:02.992Z,99276.59
2023-01-08T16:48:30.243Z,99276.59
2023-01-08T16:51:05.203Z,99277.44
2023-01-08T16:53:32.388Z,99274.88
2023-01-08T16:56:00.189Z,99275.72
2023-01-08T16:58:27.487Z,99271.41
2023-01-08T17:00:54.236Z,99275.69
2023-01-08T17:03:24.539Z,99271.38
2023-01-08T17:05:51.244Z,99261.03
2023-01-08T17:08:19.903Z,99262.75
2023-01-08T17:10:47.008Z,99267.06
2023-01-08T17:13:13.560Z,99270.53
2023-01-08T17:15:40.475Z,99258.44
2023-01-08T17:18:08.744Z,99263.59
2023-01-08T17:20:37.019Z,99261.88
2023-01-08T17:23:03.687Z,99256.69
2023-01-08T17:25:30.257Z,99263.63
2023-01-08T17:27:56.929Z,99252.41
2023-01-08T17:30:23.502Z,99251.50
2023-01-08T17:32:50.059Z,99254.97
2023-01-08T17:35:16.714Z,99261.03
2023-01-08T17:37:43.276Z,99255.84
2023-01-08T17:40:13.786Z,99260.16
2023-01-08T17:42:40.455Z,99248.09
2023-01-08T17:45:07.667Z,99246.41
2023-01-08T17:47:35.279Z,99242.91
2023-01-08T17:50:03.311Z,99242.94
2023-01-08T17:52:29.891Z,99245.50
2023-01-08T17:54:56.539Z,99236.88
2023-01-08T17:57:23.633Z,99239.47
2023-01-08T17:59:50.371Z,99240.31
2023-01-08T18:02:17.600Z,99238.63
2023-01-08T18:04:45.579Z,99232.56
2023-01-08T18:07:13.397Z,99227.38
2023-01-08T18:09:40.349Z,99229.94
2023-01-08T18:12:07.786Z,99227.34
2023-01-08T18:14:38.997Z,99218.75
2023-01-08T18:17:06.150Z,99219.59
2023-01-08T18:19:33.044Z,99223.09
2023-01-08T18:22:01.008Z,99218.75
2023-01-08T18:24:27.803Z,99217.03
2023-01-08T18:26:54.472Z,99223.06
2023-01-08T18:29:21.140Z,99215.31
2023-01-08T18:31:47.971Z,99217.91
2023-01-08T18:34:15.200Z,99218.78
2023-01-08T18:36:42.395Z,99204.94
2023-01-08T18:39:09.329Z,99200.63
2023-01-08T18:41:54.502Z,99211.00
2023-01-08T18:44:21.505Z,99198.91
2023-01-08T18:46:48.410Z,99204.94
2023-01-08T18:49:15.563Z,99198.03
2023-01-08T18:51:42.812Z,99202.34
2023-01-08T18:54:11.240Z,99204.09
2023-01-08T18:56:38.033Z,99204.09
2023-01-08T18:59:06.280Z,99189.41
2023-01-08T19:01:34.864Z,99191.16
2023-01-08T19:04:01.525Z,99194.59
2023-01-08T19:06:28.207Z,99186.81
2023-01-08T19:08:57.627Z,99186.84
2023-01-08T19:11:24.464Z,99184.25
2023-01-08T19:13:55.496Z,99185.09
2023-01-08T19:16:22.678Z,99179.06
2023-01-08T19:18:50.131Z,99171.28
2023-01-08T19:21:19.033Z,99169.56
2023-01-08T19:23:46.970Z,99167.81
2023-01-08T19:26:14.562Z,99168.69
2023-01-08T19:28:42.276Z,99164.34
2023-01-08T19:31:12.280Z,99160.06
2023-01-08T19:33:39.232Z,99155.75
2023-01-08T19:36:11.043Z,99148.81
2023-01-08T19:38:37.616Z,99141.06
2023-01-08T19:41:04.589Z,99143.63
2023-01-08T19:43:43.282Z,99136.72
2023-01-08T19:46:15.367Z,99135.84
2023-01-08T19:48:43.947Z,99128.13
2023-01-08T19:51:11.867Z,99131.56
2023-01-08T19:53:38.510Z,99129.81
2023-01-08T19:56:07.639Z,99124.66
2023-01-08T19:58:34.573Z,99123.78
2023-01-08T20:01:05.648Z,99120.34
2023-01-08T20:03:32.297Z,99128.09
2023-01-08T20:05:58.841Z,99123.78
2023-01-08T20:08:25.420Z,99116.91
2023-01-08T20:10:51.972Z,99117.75
2023-01-08T20:13:19.372Z,99109.97
2023-01-08T20:15:55.272Z,99105.66
2023-01-08T20:18:21.901Z,99103.91
2023-01-08T20:20:48.479Z,99103.09
2023-01-08T20:23:15.038Z,99096.16
2023-01-08T20:25:42.067Z,99094.44
2023-01-08T20:28:08.660Z,99096.16
2023-01-08T20:30:37.604Z,99099.63
2023-01-08T20:33:04.154Z,99097.03
2023-01-08T20:35:30.656Z,99100.47
2023-01-08T20:37:57.211Z,99099.53
2023-01-08T20:40:23.816Z,99093.56
2023-01-08T20:42:50.457Z,99094.41
2023-01-08T20:45:18.210Z,99085.81
2023-01-08T20:47:44.957Z,99081.47
2023-01-08T20:50:19.707Z,99075.44
2023-01-08T20:52:47.567Z,99079.75
2023-01-08T20:55:14.328Z,99075.44
2023-01-08T20:57:40.999Z,99077.13
2023-01-08T21:00:08.582Z,99071.97
2023-01-08T21:02:35.213Z,99070.28
2023-01-08T21:05:01.933Z,99063.38
2023-01-08T21:07:29.848Z,99059.94
2023-01-08T21:09:56.357Z,99052.19
2023-01-08T21:12:22.933Z,99040.97
2023-01-08T21:14:49.757Z,99046.16
2023-01-08T21:17:16.384Z,99050.47
2023-01-08T21:19:43.077Z,99050.44
2023-01-08T21:22:12.037Z,99043.56
2023-01-08T21:24:38.802Z,99034.94
2023-01-08T21:27:05.348Z,99033.22
2023-01-08T21:29:32.055Z,99035.75
2023-01-08T21:31:58.669Z,99033.22
2023-01-08T21:34:25.999Z,99027.19
2023-01-08T21:36:52.559Z,99024.59
2023-01-08T21:39:19.199Z,99001.34
2023-01-08T21:42:04.504Z,98992.72
2023-01-08T21:44:49.592Z,99002.19
2023-01-08T21:47:18.049Z,98976.34
2023-01-08T21:49:46.060Z,98976.34
2023-01-08T21:52:31.418Z,98972.91
2023-01-08T21:54:58.223Z,98965.97
2023-01-08T21:57:27.742Z,98965.13
2023-01-08T21:59:55.127Z,98955.66
2023-01-08T22:02:24.228Z,98945.28
2023-01-08T22:04:54.460Z,98941.00
2023-01-08T22:07:20.991Z,98930.63
2023-01-08T22:09:47.679Z,98930.63
2023-01-08T22:12:15.743Z,98935.78
2023-01-08T22:14:42.768Z,98932.38
2023-01-08T22:17:09.442Z,98918.53
2023-01-08T22:19:39.697Z,98909.91
2023-01-08T22:22:10.161Z,98914.19
2023-01-08T22:24:37.633Z,98904.75
2023-01-08T22:27:04.227Z,98908.16
2023-01-08T22:29:30.864Z,98905.59
2023-01-08T22:31:57.687Z,98897.84
2023-01-08T22:34:24.570Z,98897.81
2023-01-08T22:36:52.535Z,98890.91
2023-01-08T22:39:19.596Z,98889.19
2023-01-08T22:41:46.232Z,98877.97
2023-01-08T22:44:13.826Z,98884.03
2023-01-08T22:46:40.959Z,98875.38
2023-01-08T22:49:09.684Z,98870.25
2023-01-08T22:51:36.331Z,98868.44
2023-01-08T22:54:03.028Z,98870.16
2023-01-08T22:56:29.634Z,98865.88
2023-01-08T22:58:58.155Z,98864.09
2023-01-08T23:01:27.476Z,98859.78
2023-01-08T23:03:57.744Z,98861.50
2023-01-08T23:06:26.970Z,98860.66
2023-01-08T23:08:54.550Z,98855.50
2023-01-08T23:11:22.171Z,98861.50
2023-01-08T23:13:51.032Z,98858.09
2023-01-08T23:16:18.984Z,98851.94
2023-01-08T23:18:45.822Z,98852.00
2023-01-08T23:21:16.818Z,98850.28
2023-01-08T23:23:43.967Z,98849.41
2023-01-08T23:26:14.093Z,98845.09
2023-01-08T23:28:40.625Z,98825.25
2023-01-08T23:31:12.072Z,98833.88
2023-01-08T23:33:38.834Z,98838.13
2023-01-08T23:36:05.954Z,98827.72
2023-01-08T23:38:32.856Z,98820.03
2023-01-08T23:40:59.913Z,98820.88
2023-01-08T23:43:26.648Z,98817.34
2023-01-08T23:45:53.960Z,98815.59
2023-01-08T23:48:20.620Z,98810.44
2023-01-08T23:50:47.175Z,98806.13
2023-01-08T23:53:13.771Z,98809.53
2023-01-08T23:55:41.270Z,98813.03
2023-01-08T23:58:07.850Z,98806.97
